Time;durP1;ratioP1;P1;durP2;ratioP2;P2;SDS_P1;SDS_P2;PMS_P1;PMS_P2;Temp;Humidity;BMP_temperature;BMP_pressure;BME280_temperature;BME280_humidity;BME280_pressure;Samples;Min_cycle;Max_cycle;Signal;HPM_P1;HPM_P2
2021/03/02 00:00:11;;;;;;;8.00;6.13;;;;;;;18.97;50.98;100490.94;1022796;29;20753;-69
2021/03/02 00:00:42;;;;;;;8.80;6.30;;;;;;;18.97;50.96;100490.94;1017378;29;20307;-68
2021/03/02 00:01:13;;;;;;;7.22;5.78;;;;;;;18.98;50.93;100492.66;1018143;29;20422;-69
2021/03/02 00:01:53;;;;;;;8.80;6.75;;;;;;;18.97;50.98;100493.66;1018094;29;20275;-69
2021/03/02 00:02:24;;;;;;;9.63;6.70;;;;;;;18.98;50.97;100492.66;1017225;29;20090;-68
2021/03/02 00:02:55;;;;;;;8.30;6.50;;;;;;;18.97;50.82;100496.41;1018249;29;20032;-69
2021/03/02 00:03:27;;;;;;;7.82;6.93;;;;;;;18.97;50.89;100491.78;1018594;29;20321;-69
2021/03/02 00:03:57;;;;;;;10.38;7.30;;;;;;;18.97;50.93;100497.25;1017897;29;20453;-68
2021/03/02 00:04:29;;;;;;;8.65;6.90;;;;;;;18.97;50.78;100500.00;1018431;29;20794;-69
2021/03/02 00:06:55;;;;;;;8.63;6.18;;;;;;;18.96;51.01;100502.84;1022673;29;20254;-69
2021/03/02 00:07:27;;;;;;;9.18;6.55;;;;;;;18.95;50.92;100502.00;1020269;28;20338;-69
2021/03/02 00:08:01;;;;;;;7.78;6.38;;;;;;;18.96;50.96;100501.00;1019101;28;20301;-69
2021/03/02 00:08:32;;;;;;;7.60;5.72;;;;;;;18.96;51.01;100502.84;1022644;29;21133;-69
2021/03/02 00:09:03;;;;;;;8.70;6.22;;;;;;;18.97;50.93;100497.25;1022506;29;20606;-69
2021/03/02 00:09:34;;;;;;;8.88;6.85;;;;;;;18.98;50.80;100498.13;1021405;28;20821;-68
2021/03/02 00:10:11;;;;;;;7.30;5.88;;;;;;;18.99;50.88;100505.31;1021930;28;20046;-68
2021/03/02 00:10:42;;;;;;;6.45;5.72;;;;;;;18.99;50.81;100505.31;1020559;29;20023;-68
2021/03/02 00:11:13;;;;;;;8.52;6.55;;;;;;;18.98;50.82;100503.56;1022929;29;20266;-69
2021/03/02 00:11:45;;;;;;;9.05;6.50;;;;;;;18.97;51.01;100502.72;1022316;29;20342;-69
2021/03/02 00:12:17;;;;;;;7.28;5.93;;;;;;;18.98;50.96;100504.44;1022640;28;20024;-69
2021/03/02 00:12:51;;;;;;;7.30;6.47;;;;;;;18.98;51.03;100500.84;1022793;29;20262;-69
2021/03/02 00:13:24;;;;;;;12.20;6.75;;;;;;;18.98;50.84;100498.13;1023029;29;20302;-68
2021/03/02 00:13:55;;;;;;;7.85;6.93;;;;;;;18.97;50.84;100491.78;1022171;28;20270;-69
2021/03/02 00:14:25;;;;;;;7.20;6.50;;;;;;;18.98;50.96;100498.13;1022881;29;20269;-69
2021/03/02 00:14:56;;;;;;;7.88;6.30;;;;;;;18.99;50.83;100498.00;1018488;29;20143;-69
2021/03/02 00:15:26;;;;;;;7.20;6.03;;;;;;;18.98;50.76;100496.25;1017132;29;20526;-69
2021/03/02 00:16:02;;;;;;;10.23;7.40;;;;;;;18.98;50.91;100498.13;1018627;29;20018;-69
2021/03/02 00:17:00;;;;;;;9.68;7.28;;;;;;;18.95;50.94;100509.34;1015529;29;20008;-68
2021/03/02 00:17:47;;;;;;;7.72;6.03;;;;;;;18.97;50.93;100502.72;1025545;28;20258;-69
2021/03/02 00:18:19;;;;;;;7.13;6.00;;;;;;;18.97;50.86;100502.72;1019281;29;20263;-68
2021/03/02 00:18:55;;;;;;;6.82;5.78;;;;;;;18.97;50.89;100501.88;1017988;29;20260;-69
2021/03/02 00:19:40;;;;;;;7.00;5.95;;;;;;;18.95;50.95;100498.41;1018144;29;20274;-68
2021/03/02 00:20:13;;;;;;;7.35;6.28;;;;;;;18.95;51.04;100503.88;1016803;29;20260;-69
2021/03/02 00:20:47;;;;;;;9.05;6.68;;;;;;;18.97;51.04;100504.59;1021757;28;20243;-69
2021/03/02 00:21:21;;;;;;;7.72;6.20;;;;;;;18.96;50.98;100498.28;1022930;29;20277;-68
2021/03/02 00:22:02;;;;;;;8.68;6.68;;;;;;;18.97;50.94;100504.59;1022563;28;20291;-69
2021/03/02 00:22:33;;;;;;;;;;;;;;;18.94;51.00;100502.16;1020876;28;20255;-68
2021/03/02 00:23:17;;;;;;;7.07;5.97;;;;;;;18.93;51.06;100501.25;1022889;29;19932;-68
2021/03/02 00:23:53;;;;;;;7.63;6.20;;;;;;;18.94;51.06;100507.63;1022315;28;20762;-68
2021/03/02 00:24:31;;;;;;;7.70;6.03;;;;;;;18.94;51.05;100502.16;1019126;28;20301;-69
2021/03/02 00:25:05;;;;;;;7.93;6.22;;;;;;;18.95;51.04;100509.34;1022197;29;20387;-69
2021/03/02 00:25:37;;;;;;;7.15;6.03;;;;;;;18.96;50.89;100505.59;1022766;29;20262;-69
2021/03/02 00:26:11;;;;;;;8.63;5.95;;;;;;;18.97;50.90;100504.59;1022880;29;20251;-69
2021/03/02 00:26:48;;;;;;;6.55;5.82;;;;;;;18.97;50.78;100508.19;1022048;28;20359;-70
2021/03/02 00:27:21;;;;;;;8.95;6.63;;;;;;;18.95;50.86;100495.66;1021940;28;20283;-68
2021/03/02 00:27:54;;;;;;;7.03;5.70;;;;;;;18.97;51.08;100504.59;1022587;29;20262;-69
2021/03/02 00:28:26;;;;;;;8.80;6.70;;;;;;;18.95;50.99;100502.00;1022086;28;20267;-69
2021/03/02 00:29:03;;;;;;;8.68;5.88;;;;;;;18.96;50.96;100497.38;1022643;28;20254;-69
2021/03/02 00:29:34;;;;;;;7.32;5.95;;;;;;;18.94;51.04;100502.16;1018511;29;20352;-69
2021/03/02 00:30:06;;;;;;;8.07;6.28;;;;;;;18.95;51.04;100503.88;1017536;29;20263;-69
2021/03/02 00:30:37;;;;;;;7.70;5.75;;;;;;;18.97;51.06;100504.59;1017642;29;20020;-69
2021/03/02 00:31:36;;;;;;;7.57;6.05;;;;;;;18.94;51.02;100502.16;1018808;29;20343;-68
2021/03/02 00:32:08;;;;;;;8.80;6.72;;;;;;;18.94;51.04;100499.41;1019448;29;20254;-69
2021/03/02 00:32:40;;;;;;;9.73;6.28;;;;;;;18.96;51.14;100508.31;1020903;28;20296;-69
2021/03/02 00:33:12;;;;;;;10.18;7.03;;;;;;;18.95;50.91;100503.88;1021988;28;20781;-69
2021/03/02 00:33:46;;;;;;;9.23;6.25;;;;;;;18.94;50.96;100497.53;1022454;29;20267;-69
2021/03/02 00:34:16;;;;;;;7.93;6.10;;;;;;;18.96;51.09;100500.13;1021897;28;20303;-69
2021/03/02 00:34:48;;;;;;;7.65;5.80;;;;;;;18.96;50.96;100500.13;1021916;29;20247;-69
2021/03/02 00:35:19;;;;;;;7.82;6.35;;;;;;;18.95;50.92;100498.41;1022505;29;20558;-69
2021/03/02 00:35:50;;;;;;;8.52;6.55;;;;;;;18.95;51.04;100498.41;1021690;28;20765;-69
2021/03/02 00:36:20;;;;;;;7.80;6.70;;;;;;;18.96;50.91;100495.53;1021892;28;20081;-69
2021/03/02 00:36:51;;;;;;;10.07;6.03;;;;;;;18.96;51.04;100500.13;1022737;29;20287;-68
2021/03/02 00:37:21;;;;;;;8.13;6.20;;;;;;;18.96;51.01;100505.59;1020844;28;20039;-69
2021/03/02 00:37:52;;;;;;;7.72;6.18;;;;;;;18.96;51.02;100503.75;1021357;28;20466;-69
2021/03/02 00:38:23;;;;;;;7.20;5.97;;;;;;;18.96;51.03;100501.00;1022370;28;20030;-69
2021/03/02 00:39:06;;;;;;;9.20;6.43;;;;;;;18.96;51.03;100494.66;1022435;29;20510;-69
2021/03/02 00:39:37;;;;;;;8.50;7.05;;;;;;;18.97;50.93;100501.88;1020994;28;20137;-69
2021/03/02 00:40:07;;;;;;;7.65;6.05;;;;;;;18.97;51.01;100496.41;1022829;29;20333;-69
2021/03/02 00:42:30;;;;;;;6.45;5.82;;;;;;;18.91;51.12;100494.22;1038240;23;20574;-69
2021/03/02 00:43:01;;;;;;;8.88;6.30;;;;;;;18.92;51.06;100498.69;1037553;28;20794;-69
2021/03/02 00:43:32;;;;;;;7.95;6.38;;;;;;;18.92;51.17;100490.50;1036971;28;20040;-69
2021/03/02 00:44:03;;;;;;;9.15;6.13;;;;;;;18.93;51.13;100495.81;1038340;28;20137;-69
2021/03/02 00:44:35;;;;;;;8.98;6.10;;;;;;;18.93;50.94;100487.59;1032591;28;20021;-69
2021/03/02 00:45:06;;;;;;;6.97;6.25;;;;;;;18.94;51.05;100488.50;1032472;28;20261;-68
2021/03/02 00:45:37;;;;;;;7.85;5.70;;;;;;;18.94;51.06;100491.22;1026338;28;20018;-68
2021/03/02 00:46:07;;;;;;;7.18;6.07;;;;;;;18.92;50.93;100491.34;1026969;28;20271;-69
2021/03/02 00:46:38;;;;;;;7.95;6.30;;;;;;;18.94;51.00;100494.81;1029743;28;20034;-68
2021/03/02 00:47:09;;;;;;;7.68;6.15;;;;;;;18.96;51.02;100500.13;1026389;28;20113;-68
2021/03/02 00:47:39;;;;;;;6.65;5.20;;;;;;;18.94;51.05;100496.69;1026027;28;20113;-68
2021/03/02 00:48:11;;;;;;;7.63;5.72;;;;;;;18.95;51.08;100498.41;1024565;28;20635;-69
2021/03/02 00:48:41;;;;;;;7.00;5.82;;;;;;;18.96;50.85;100505.59;1024423;28;20058;-69
2021/03/02 00:49:12;;;;;;;7.47;6.45;;;;;;;18.94;50.93;100496.69;1030380;28;20261;-69
2021/03/02 00:49:43;;;;;;;8.52;5.75;;;;;;;18.93;51.06;100501.25;1026706;28;20038;-68
2021/03/02 00:50:13;;;;;;;10.25;6.20;;;;;;;18.94;51.13;100502.16;1033228;28;20022;-68
2021/03/02 00:50:45;;;;;;;7.22;5.40;;;;;;;18.94;51.09;100507.63;1030156;28;20513;-69
2021/03/02 00:51:17;;;;;;;6.68;5.78;;;;;;;18.95;51.05;100503.88;1030432;28;20285;-69
2021/03/02 00:51:48;;;;;;;9.57;5.97;;;;;;;18.95;50.95;100498.41;1028390;28;20280;-69
2021/03/02 00:52:21;;;;;;;8.15;5.80;;;;;;;18.93;51.06;100494.94;1031081;28;20292;-69
2021/03/02 00:52:52;;;;;;;6.85;5.28;;;;;;;18.95;51.07;100509.34;1035667;28;20256;-68
2021/03/02 00:53:25;;;;;;;8.63;6.45;;;;;;;18.93;50.96;100498.53;1034252;28;20038;-69
2021/03/02 00:53:55;;;;;;;8.40;5.65;;;;;;;18.95;51.10;100503.88;1034313;28;20391;-68
2021/03/02 00:54:26;;;;;;;7.93;5.95;;;;;;;18.95;50.96;100501.13;1030973;28;20639;-68
2021/03/02 00:54:57;;;;;;;7.30;5.95;;;;;;;18.95;50.92;100490.22;1028519;28;20074;-68
2021/03/02 00:55:28;;;;;;;9.40;6.78;;;;;;;18.94;50.92;100491.22;1030585;28;20022;-69
2021/03/02 00:55:59;;;;;;;6.88;5.40;;;;;;;18.93;51.05;100492.22;1030267;28;20030;-69
2021/03/02 00:56:30;;;;;;;6.93;6.22;;;;;;;18.94;51.03;100497.53;1025987;28;20345;-69
2021/03/02 00:57:00;;;;;;;7.47;6.75;;;;;;;18.93;50.85;100494.94;1025572;28;20674;-68
2021/03/02 00:57:31;;;;;;;8.68;5.15;;;;;;;18.92;50.92;100495.97;1030172;28;20045;-68
2021/03/02 00:58:02;;;;;;;7.60;6.32;;;;;;;18.92;51.03;100495.97;1030057;28;20023;-68
2021/03/02 00:58:37;;;;;;;9.70;6.22;;;;;;;18.93;51.14;100494.94;1032600;28;21002;-69
2021/03/02 00:59:08;;;;;;;7.28;5.82;;;;;;;18.93;50.98;100498.53;1034445;28;21002;-69
2021/03/02 00:59:38;;;;;;;8.73;6.20;;;;;;;18.94;51.00;100493.97;1033924;28;20117;-68
2021/03/02 01:00:10;;;;;;;6.18;5.50;;;;;;;18.93;50.87;100494.94;1029665;28;20030;-68
2021/03/02 01:00:40;;;;;;;7.13;6.20;;;;;;;18.94;51.17;100496.69;1030137;28;20041;-69
2021/03/02 01:01:14;;;;;;;16.52;5.75;;;;;;;18.94;51.09;100499.41;1026465;28;20348;-69
2021/03/02 01:01:45;;;;;;;7.10;6.40;;;;;;;18.94;51.12;100496.69;1026030;28;20266;-69
2021/03/02 01:02:16;;;;;;;6.53;5.82;;;;;;;18.94;51.09;100496.69;1027032;28;20274;-69
2021/03/02 01:02:47;;;;;;;7.57;5.90;;;;;;;18.95;51.02;100501.13;1030333;28;20033;-69
2021/03/02 01:03:18;;;;;;;7.70;6.05;;;;;;;18.94;51.11;100504.88;1030339;28;20261;-69
2021/03/02 01:03:48;;;;;;;9.05;6.75;;;;;;;18.94;51.10;100502.16;1029446;28;20023;-69
2021/03/02 01:04:20;;;;;;;7.28;5.60;;;;;;;18.94;51.01;100507.63;1034630;28;20037;-69
2021/03/02 01:04:51;;;;;;;7.45;5.68;;;;;;;18.95;50.87;100498.41;1033778;28;20284;-68
2021/03/02 01:05:22;;;;;;;9.07;6.15;;;;;;;18.95;50.95;100498.41;1033815;28;20636;-69
2021/03/02 01:05:53;;;;;;;7.93;5.82;;;;;;;18.95;50.93;100506.59;1034245;28;20566;-69
2021/03/02 01:06:29;;;;;;;7.60;6.05;;;;;;;18.93;51.05;100505.88;1032630;28;20022;-69
2021/03/02 01:07:00;;;;;;;7.32;6.13;;;;;;;18.92;51.02;100504.16;1029329;28;20316;-69
2021/03/02 01:07:34;;;;;;;7.57;6.35;;;;;;;18.92;50.96;100504.16;1030402;28;20030;-69
2021/03/02 01:08:05;;;;;;;8.93;5.95;;;;;;;18.93;50.94;100500.41;1031905;28;20268;-69
2021/03/02 01:08:40;;;;;;;7.32;5.90;;;;;;;18.94;51.01;100502.16;1026443;28;20262;-69
2021/03/02 01:09:11;;;;;;;7.38;5.72;;;;;;;18.93;51.04;100504.00;1025346;28;20633;-69
2021/03/02 01:09:46;;;;;;;8.57;6.07;;;;;;;18.94;51.07;100499.41;1025944;28;20373;-69
2021/03/02 01:10:19;;;;;;;6.22;5.50;;;;;;;18.93;50.82;100506.72;1030160;28;20261;-68
2021/03/02 01:10:55;;;;;;;7.35;6.28;;;;;;;18.92;50.85;100499.53;1035828;28;20026;-69
2021/03/02 01:11:29;;;;;;;8.02;6.10;;;;;;;18.92;50.86;100498.69;1032315;28;20261;-69
2021/03/02 01:12:01;;;;;;;6.03;5.43;;;;;;;18.92;51.02;100499.53;1030488;28;20272;-69
2021/03/02 01:12:34;;;;;;;8.88;5.22;;;;;;;18.92;50.94;100505.00;1023274;28;20031;-69
2021/03/02 01:13:05;;;;;;;9.13;6.22;;;;;;;18.92;51.05;100498.69;1026828;28;20504;-69
2021/03/02 01:13:36;;;;;;;7.32;5.65;;;;;;;18.91;50.97;100507.88;1032185;28;20244;-69
2021/03/02 01:15:58;;;;;;;8.07;5.72;;;;;;;18.85;51.17;100504.69;1036057;28;20087;-68
2021/03/02 01:16:29;;;;;;;8.05;4.97;;;;;;;18.87;51.07;100500.97;1038572;28;20272;-69
2021/03/02 01:17:00;;;;;;;7.18;5.32;;;;;;;18.87;51.19;100500.97;1038572;28;20483;-69
2021/03/02 01:17:30;;;;;;;6.60;5.57;;;;;;;18.88;51.11;100502.69;1031890;28;20101;-68
2021/03/02 01:18:23;;;;;;;6.97;5.75;;;;;;;18.87;51.19;100503.72;1030395;28;20520;-69
2021/03/02 01:18:53;;;;;;;8.52;5.72;;;;;;;18.87;50.95;100496.38;1030450;28;20014;-68
2021/03/02 01:19:24;;;;;;;6.63;5.15;;;;;;;18.88;51.00;100502.69;1034448;28;20272;-69
2021/03/02 01:19:54;;;;;;;7.85;6.18;;;;;;;18.88;51.21;100499.97;1038500;28;20057;-69
2021/03/02 01:20:25;;;;;;;7.80;6.25;;;;;;;18.87;51.17;100500.97;1034385;28;20018;-69
2021/03/02 01:20:55;;;;;;;8.85;6.22;;;;;;;18.87;51.23;100507.28;1033895;28;20029;-69
2021/03/02 01:21:26;;;;;;;6.35;5.53;;;;;;;18.88;51.02;100497.22;1034505;28;20017;-69
2021/03/02 01:21:56;;;;;;;8.45;6.00;;;;;;;18.88;51.06;100502.69;1034546;28;20049;-69
2021/03/02 01:22:27;;;;;;;8.77;5.50;;;;;;;18.89;51.02;100496.22;1035876;28;20024;-69
2021/03/02 01:22:57;;;;;;;6.82;5.55;;;;;;;18.88;50.96;100498.09;1036984;28;20018;-69
2021/03/02 01:23:28;;;;;;;7.05;5.60;;;;;;;18.89;51.16;100498.94;1038844;28;20034;-69
2021/03/02 01:24:33;;;;;;;6.93;6.05;;;;;;;18.86;51.04;100494.63;1038233;28;20099;-69
2021/03/02 01:25:50;;;;;;;7.07;5.63;;;;;;;18.85;51.24;100498.38;1033200;28;20022;-69
2021/03/02 01:26:21;;;;;;;7.70;5.68;;;;;;;18.83;51.27;100492.19;1036918;28;20276;-69
2021/03/02 01:26:51;;;;;;;7.35;5.72;;;;;;;18.85;51.20;100498.38;1038798;28;20271;-69
2021/03/02 01:27:22;;;;;;;9.52;6.75;;;;;;;18.85;51.14;100493.75;1038166;28;20026;-69
2021/03/02 01:27:52;;;;;;;8.55;5.10;;;;;;;18.85;51.20;100503.84;1038715;28;20021;-69
2021/03/02 01:28:23;;;;;;;7.05;5.60;;;;;;;18.85;51.12;100499.22;1042686;28;20051;-70
2021/03/02 01:28:53;;;;;;;6.95;6.15;;;;;;;18.85;51.20;100501.97;1042717;28;20087;-69
2021/03/02 01:29:24;;;;;;;9.85;6.05;;;;;;;18.87;51.09;100507.28;1038132;28;20053;-69
2021/03/02 01:29:54;;;;;;;7.57;5.70;;;;;;;18.88;51.15;100497.22;1038869;28;20018;-69
2021/03/02 01:30:26;;;;;;;8.27;6.55;;;;;;;18.89;50.90;100499.84;1038559;28;20052;-69
2021/03/02 01:31:25;;;;;;;7.55;5.80;;;;;;;18.86;51.14;100500.09;1033805;28;20033;-69
2021/03/02 01:31:55;;;;;;;8.70;6.68;;;;;;;18.88;50.96;100502.69;1034631;28;20619;-69
2021/03/02 01:32:26;;;;;;;8.15;5.53;;;;;;;18.88;51.17;100499.97;1034718;28;21132;-69
2021/03/02 01:32:56;;;;;;;7.78;6.32;;;;;;;18.88;50.96;100505.41;1035136;28;20068;-69
2021/03/02 01:33:27;;;;;;;7.40;5.45;;;;;;;18.88;51.10;100505.41;1038921;28;20022;-69
2021/03/02 01:33:58;;;;;;;8.15;5.97;;;;;;;18.87;51.03;100506.44;1038678;28;20017;-69
2021/03/02 01:34:28;;;;;;;6.30;5.30;;;;;;;18.88;51.14;100502.69;1034829;28;20017;-69
2021/03/02 01:34:59;;;;;;;7.60;5.47;;;;;;;18.87;50.99;100500.97;1034804;28;20042;-69
2021/03/02 01:35:29;;;;;;;8.32;5.82;;;;;;;18.86;51.09;100500.09;1034730;28;20083;-69
2021/03/02 01:36:00;;;;;;;6.80;5.90;;;;;;;18.87;51.35;100504.56;1034626;28;20681;-69
2021/03/02 01:36:31;;;;;;;8.13;5.43;;;;;;;18.88;51.15;100508.16;1037658;28;20056;-69
2021/03/02 01:37:02;;;;;;;6.88;5.93;;;;;;;18.88;51.09;100505.41;1039553;28;20151;-69
2021/03/02 01:37:32;;;;;;;6.45;5.68;;;;;;;18.88;51.13;100498.09;1038290;28;20048;-69
2021/03/02 01:38:04;;;;;;;6.60;5.15;;;;;;;18.87;50.89;100499.09;1039373;28;20294;-69
2021/03/02 01:38:36;;;;;;;6.47;5.35;;;;;;;18.87;51.09;100495.50;1035102;28;20025;-69
2021/03/02 01:39:06;;;;;;;5.75;4.90;;;;;;;18.87;51.04;100500.97;1033666;28;20379;-68
2021/03/02 01:39:37;;;;;;;6.47;5.20;;;;;;;18.85;50.99;100504.69;1034335;28;20261;-69
2021/03/02 01:40:13;;;;;;;8.52;5.75;;;;;;;18.85;50.97;100496.50;1035159;28;20033;-69
2021/03/02 01:40:44;;;;;;;6.85;5.00;;;;;;;18.87;51.13;100490.06;1038576;28;20061;-68
2021/03/02 01:41:15;;;;;;;6.82;5.50;;;;;;;18.86;51.25;100500.09;1039597;28;20251;-69
2021/03/02 01:41:52;;;;;;;7.40;6.35;;;;;;;18.88;51.16;100491.75;1039439;28;20049;-69
2021/03/02 01:42:23;;;;;;;9.38;6.00;;;;;;;18.88;51.07;100499.97;1039010;28;20272;-69
2021/03/02 01:42:53;;;;;;;8.95;5.53;;;;;;;18.87;50.95;100498.25;1038080;28;20276;-69
2021/03/02 01:43:24;;;;;;;8.98;6.05;;;;;;;18.87;51.14;100496.38;1039080;28;20640;-69
2021/03/02 01:44:23;;;;;;;9.43;5.57;;;;;;;18.84;50.92;100494.78;1039121;28;20853;-69
2021/03/02 01:44:54;;;;;;;7.47;6.15;;;;;;;18.85;51.03;100496.50;1036416;28;20077;-69
2021/03/02 01:45:24;;;;;;;6.85;4.93;;;;;;;18.84;51.03;100499.38;1039069;28;20272;-69
2021/03/02 01:45:55;;;;;;;7.47;5.55;;;;;;;18.85;51.01;100496.50;1035311;28;20017;-69
2021/03/02 01:46:25;;;;;;;6.78;6.07;;;;;;;18.84;51.05;100497.50;1033676;28;20076;-69
2021/03/02 01:46:57;;;;;;;7.47;5.40;;;;;;;18.83;51.19;100490.31;1031239;28;20010;-69
2021/03/02 01:47:27;;;;;;;7.30;5.72;;;;;;;18.87;51.19;100492.78;1035412;28;20006;-69
2021/03/02 01:47:58;;;;;;;9.25;5.68;;;;;;;18.87;50.93;100492.78;1035122;28;20309;-69
2021/03/02 01:48:29;;;;;;;6.05;5.45;;;;;;;18.85;51.10;100485.56;1037965;28;20017;-69
2021/03/02 01:48:59;;;;;;;7.95;6.05;;;;;;;18.87;51.07;100490.06;1039472;28;20273;-69
2021/03/02 01:49:30;;;;;;;6.53;5.25;;;;;;;18.85;51.05;100488.31;1038494;28;20104;-69
2021/03/02 01:50:05;;;;;;;7.35;5.70;;;;;;;18.88;51.03;100494.50;1040128;28;20884;-69
2021/03/02 01:51:04;;;;;;;7.35;5.03;;;;;;;18.84;51.23;100491.19;1034518;28;20109;-69
2021/03/02 01:51:36;;;;;;;9.15;5.93;;;;;;;18.82;51.00;100494.06;1031491;28;20273;-69
2021/03/02 01:52:07;;;;;;;6.18;4.95;;;;;;;18.83;51.20;100493.03;1034110;28;20264;-69
2021/03/02 01:52:38;;;;;;;7.22;5.25;;;;;;;18.82;51.18;100494.06;1035241;28;20308;-69
2021/03/02 01:53:09;;;;;;;7.00;5.00;;;;;;;18.85;50.91;100491.03;1037017;28;20272;-69
2021/03/02 01:53:39;;;;;;;6.57;5.38;;;;;;;18.83;51.18;100490.31;1039463;28;20025;-69
2021/03/02 01:54:12;;;;;;;7.45;5.30;;;;;;;18.85;51.01;100499.22;1036639;28;20053;-69
2021/03/02 01:54:47;;;;;;;5.97;4.90;;;;;;;18.84;51.00;100492.06;1032371;28;20485;-68
2021/03/02 01:55:17;;;;;;;9.77;5.45;;;;;;;18.85;51.32;100499.22;1032207;28;20666;-69
2021/03/02 01:55:48;;;;;;;8.07;5.28;;;;;;;18.84;51.06;100497.50;1030617;28;20643;-68
2021/03/02 01:56:19;;;;;;;5.75;5.15;;;;;;;18.86;50.96;100494.63;1034823;28;20029;-68
2021/03/02 01:56:49;;;;;;;7.55;4.78;;;;;;;18.85;51.00;100493.75;1039495;28;20482;-69
2021/03/02 01:57:20;;;;;;;8.57;5.25;;;;;;;18.85;50.96;100488.31;1035835;28;20065;-69
2021/03/02 01:57:50;;;;;;;6.78;5.68;;;;;;;18.85;51.04;100487.44;1027817;28;20034;-69
2021/03/02 01:58:21;;;;;;;7.40;5.72;;;;;;;18.85;51.05;100488.31;1031119;28;20034;-69
2021/03/02 01:58:51;;;;;;;6.90;5.55;;;;;;;18.83;51.07;100478.53;1031001;28;20034;-68
2021/03/02 01:59:22;;;;;;;5.57;5.03;;;;;;;18.84;51.04;100492.06;1033896;28;20040;-69
2021/03/02 01:59:52;;;;;;;6.22;4.75;;;;;;;18.85;51.07;100487.44;1035186;28;20748;-68
2021/03/02 02:00:34;;;;;;;6.47;5.32;;;;;;;18.82;51.24;100483.13;1038293;28;20032;-69
2021/03/02 02:01:08;;;;;;;8.02;5.32;;;;;;;18.83;50.95;100483.97;1039176;28;20021;-69
2021/03/02 02:01:40;;;;;;;7.40;5.55;;;;;;;18.81;51.23;100481.41;1039503;28;20260;-69
2021/03/02 02:02:20;;;;;;;7.32;5.25;;;;;;;18.81;50.91;100475.94;1039110;28;20256;-69
2021/03/02 02:03:34;;;;;;;9.23;5.68;;;;;;;18.80;51.12;100476.94;1038809;28;20271;-69
2021/03/02 02:04:10;;;;;;;8.20;5.65;;;;;;;18.80;51.13;100485.13;1026433;28;20277;-69
2021/03/02 02:04:47;;;;;;;9.10;5.95;;;;;;;18.80;51.14;100479.66;1024377;28;20757;-69
2021/03/02 02:05:22;;;;;;;8.27;5.45;;;;;;;18.79;51.02;100483.41;1026974;28;20270;-69
2021/03/02 02:06:08;;;;;;;5.88;5.13;;;;;;;18.78;51.13;100481.66;1032493;28;20281;-69
2021/03/02 02:06:43;;;;;;;7.13;4.72;;;;;;;18.79;51.04;100477.94;1031768;28;20300;-68
2021/03/02 02:07:26;;;;;;;7.75;5.25;;;;;;;18.78;51.25;100484.41;1033230;28;20351;-69
2021/03/02 02:08:02;;;;;;;7.07;5.28;;;;;;;18.79;51.25;100482.53;1031706;28;20265;-69
2021/03/02 02:08:56;;;;;;;6.80;4.90;;;;;;;18.78;51.03;100481.66;1038953;28;20290;-69
2021/03/02 02:09:29;;;;;;;7.07;5.50;;;;;;;18.78;51.11;100480.81;1027054;28;20266;-69
2021/03/02 02:10:12;;;;;;;5.80;5.00;;;;;;;18.78;51.24;100487.13;1028536;28;20380;-69
2021/03/02 02:10:58;;;;;;;6.18;4.93;;;;;;;18.78;51.23;100486.28;1028511;28;20266;-69
2021/03/02 02:11:34;;;;;;;8.63;5.60;;;;;;;18.79;51.14;100486.16;1031014;28;20288;-69
2021/03/02 02:12:24;;;;;;;7.45;5.22;;;;;;;18.78;51.25;100487.13;1032141;28;20307;-69
2021/03/02 02:13:12;;;;;;;7.03;5.30;;;;;;;18.76;51.34;100485.53;1031317;28;20277;-69
2021/03/02 02:13:50;;;;;;;9.70;6.38;;;;;;;18.75;51.30;100479.19;1034657;28;20926;-69
2021/03/02 02:14:23;;;;;;;5.57;5.07;;;;;;;18.76;51.16;100483.66;1034582;28;20318;-69
2021/03/02 02:15:06;;;;;;;7.13;5.53;;;;;;;18.76;51.33;100486.41;1035175;28;20280;-69
2021/03/02 02:15:40;;;;;;;5.75;4.80;;;;;;;18.76;51.25;100480.06;1035746;28;20909;-69
2021/03/02 02:16:13;;;;;;;6.65;5.22;;;;;;;18.76;51.33;100486.41;1039132;28;20259;-69
2021/03/02 02:16:48;;;;;;;8.48;6.38;;;;;;;18.76;51.20;100478.19;1037185;28;20379;-68
2021/03/02 02:17:19;;;;;;;6.40;5.10;;;;;;;18.78;51.15;100480.81;1036790;28;20359;-69
2021/03/02 02:17:57;;;;;;;8.63;5.05;;;;;;;18.78;51.33;100481.66;1037582;28;20350;-69
2021/03/02 02:18:32;;;;;;;6.53;5.20;;;;;;;18.79;51.27;100482.53;1035333;28;20335;-69
2021/03/02 02:19:04;;;;;;;6.95;5.32;;;;;;;18.80;51.04;100485.13;1036268;28;20272;-69
2021/03/02 02:19:46;;;;;;;5.95;5.03;;;;;;;18.79;51.18;100480.69;1036822;28;20273;-69
2021/03/02 02:20:58;;;;;;;8.70;5.85;;;;;;;18.75;51.22;100490.09;1039131;28;20264;-69
2021/03/02 02:22:02;;;;;;;8.45;5.10;;;;;;;18.72;51.37;100482.19;1021536;29;20377;-69
2021/03/02 02:22:51;;;;;;;7.55;5.72;;;;;;;18.74;51.30;100485.66;1035042;28;20030;-69
2021/03/02 02:23:58;;;;;;;7.00;5.60;;;;;;;18.73;51.30;100483.91;1038612;28;20261;-69
2021/03/02 02:24:42;;;;;;;6.22;4.72;;;;;;;18.72;51.47;100482.19;1038414;28;20770;-69
2021/03/02 02:25:33;;;;;;;5.80;5.00;;;;;;;18.74;51.06;100474.75;1036096;28;20275;-69
2021/03/02 02:26:38;;;;;;;9.65;5.47;;;;;;;18.72;51.32;100479.47;1036529;28;20619;-69
2021/03/02 02:27:08;;;;;;;5.97;4.30;;;;;;;18.71;51.33;100480.44;1036930;28;20358;-69
2021/03/02 02:27:41;;;;;;;6.00;4.65;;;;;;;18.73;51.39;100477.59;1036532;28;20752;-69
2021/03/02 02:28:13;;;;;;;6.72;5.38;;;;;;;18.74;51.25;100480.19;1033118;28;20157;-69
2021/03/02 02:28:47;;;;;;;6.07;4.80;;;;;;;18.73;51.33;100475.72;1032137;28;20257;-69
2021/03/02 02:29:23;;;;;;;5.38;4.82;;;;;;;18.76;51.26;100480.94;1031545;28;20289;-69
2021/03/02 02:29:54;;;;;;;6.82;5.05;;;;;;;18.74;51.29;100480.19;1032480;28;20346;-69
2021/03/02 02:30:26;;;;;;;6.13;4.63;;;;;;;18.77;51.15;100474.50;1036920;28;20257;-69
2021/03/02 02:30:58;;;;;;;7.82;5.30;;;;;;;18.76;51.32;100478.19;1037647;28;20264;-69
2021/03/02 02:31:31;;;;;;;7.65;5.35;;;;;;;18.77;51.19;100474.50;1035213;28;20264;-69
2021/03/02 02:32:05;;;;;;;6.78;5.07;;;;;;;18.76;51.29;100478.19;1034837;28;20257;-69
2021/03/02 02:32:38;;;;;;;7.35;4.95;;;;;;;18.76;51.24;100472.75;1038755;28;20252;-69
2021/03/02 02:33:12;;;;;;;7.20;5.35;;;;;;;18.76;51.52;100478.19;1039278;28;20359;-69
2021/03/02 02:33:44;;;;;;;6.57;4.78;;;;;;;18.77;51.25;100471.75;1038299;28;20275;-69
2021/03/02 02:34:17;;;;;;;6.35;5.07;;;;;;;18.78;51.13;100475.34;1038940;28;20268;-69
2021/03/02 02:34:49;;;;;;;5.40;4.90;;;;;;;18.78;51.24;100476.19;1039350;28;20309;-69
2021/03/02 02:35:22;;;;;;;5.55;4.93;;;;;;;18.77;51.10;100473.63;1039568;28;20674;-69
2021/03/02 02:35:54;;;;;;;6.00;4.82;;;;;;;18.77;51.32;100477.22;1033232;28;20268;-68
2021/03/02 02:36:24;;;;;;;7.18;4.57;;;;;;;18.78;51.11;100481.66;1030916;28;20257;-69
2021/03/02 02:36:59;;;;;;;5.72;5.03;;;;;;;18.79;51.14;100477.94;1030884;28;20305;-69
2021/03/02 02:37:32;;;;;;;6.32;4.85;;;;;;;18.78;51.24;100478.94;1033152;28;20037;-69
2021/03/02 02:38:05;;;;;;;5.47;4.70;;;;;;;18.78;51.31;100481.66;1031934;28;21040;-69
2021/03/02 02:38:42;;;;;;;7.22;5.55;;;;;;;18.76;51.16;100475.47;1035193;28;20249;-69
2021/03/02 02:39:13;;;;;;;5.82;4.50;;;;;;;18.77;51.35;100479.94;1035289;28;20751;-69
2021/03/02 02:39:44;;;;;;;6.68;5.30;;;;;;;18.78;51.24;100481.66;1039361;28;20330;-69
2021/03/02 02:40:16;;;;;;;7.03;4.57;;;;;;;18.78;51.17;100489.84;1039090;28;20686;-69
2021/03/02 02:40:49;;;;;;;7.25;5.35;;;;;;;18.76;51.17;100486.41;1033078;28;20292;-69
2021/03/02 02:41:21;;;;;;;5.45;4.60;;;;;;;18.77;51.24;100487.28;1030939;28;20320;-69
2021/03/02 02:41:53;;;;;;;6.22;5.05;;;;;;;18.77;51.23;100482.69;1030998;28;20820;-69
2021/03/02 02:42:25;;;;;;;6.45;5.03;;;;;;;18.77;51.02;100479.94;1031449;28;20763;-69
2021/03/02 02:42:57;;;;;;;6.28;5.18;;;;;;;18.78;51.10;100484.41;1039548;28;20275;-69
2021/03/02 02:43:28;;;;;;;9.13;5.30;;;;;;;18.78;51.09;100487.13;1037078;28;20785;-69
2021/03/02 02:44:00;;;;;;;5.63;4.38;;;;;;;18.78;51.07;100481.66;1038978;28;20346;-69
2021/03/02 02:44:34;;;;;;;8.02;5.60;;;;;;;18.79;51.15;100483.41;1037383;28;20259;-69
2021/03/02 02:45:06;;;;;;;5.95;4.50;;;;;;;18.78;51.22;100475.34;1036722;28;20264;-69